Arrowsmith, Illinois
Current Conditions -  °F | °C
As of 12:56 AM on Wednesday 26 Nov 2014 (Local Time) from KBMI Reporting Station
Clear Clear  
Wind Chill: -10°   Ceiling: Unl
Heat Index: -6°   Visibility: 10mi
Dew Point: -7°   Wind: 7mph
Humidity: 92%   Direction: 140°SE
Pressure: 30.14"   Gusts: NA
Location:  40.45°N, 88.63°W
Report Text: KBMI 260656Z AUTO 14006KT 10SM CLR M06/M07 A3014 RMK AO2 T10551066 SLP231
Loading
Personal Weather Stations






























Interactive Weather Map New forecast layout! Learn more

10-Day Weather Forecast

Advertisements
Track Severe Weather on mobile